Mount Hood Parkdale, OR (97041)

1:15 AM PST on December 09, 2016 (GMT -0800)
Bosse Acres Ranch | | Change Station
Active Advisory: Winter Storm Warning

Elev 1660 ft 45.51 °N, 121.57 °W | Updated 38 seconds ago

Overcast
Overcast
19.4 °F
Feels Like 19 °F
N
0.0
Wind Variable Wind from NNE

Today
High -- | Low -- °F
--% Chance of Precip.
Yesterday
High -- | Low -- °F
Precip. -- in
Pressure 30.26 in
Visibility 1.8 miles
Clouds Overcast 2800 ft
Windchill 19 °F
Dew Point 18 °F
Humidity 93%
Rainfall 0.00 in
Snow Depth Not available.
7:35 AM 4:22 PM
Waxing Gibbous, 72% visible
SPECI KDLS 090907Z AUTO 00000KT 1 3/4SM -SN BR OVC028 M04/M06 A3026 RMK AO2 P0001 T10441056
Pressure 30.26 in
Visibility 1.8 miles
Clouds Overcast 2800 ft
Windchill 19 °F
Dew Point 18 °F
Humidity 93%
Rainfall 0.00 in
Snow Depth Not available.
7:35 AM 4:22 PM
Waxing Gibbous, 72% visible
SPECI KDLS 090907Z AUTO 00000KT 1 3/4SM -SN BR OVC028 M04/M06 A3026 RMK AO2 P0001 T10441056

10-Day Weather Forecast

Almanac

Astronomy

Dec. 09, 2016 Rise Set
Actual Time
Civil Twilight
Nautical Twilight
Astronomical Twilight
Moon
Length of Visible Light
Length of Day
Tomorrow will be .
, % of the Moon is Illuminated

Today's Extremes

State Highs State Lows

Community

WunderPhotos

Upload Photos

1,956,371 photos uploaded!

WunderBlog® & News

Nearby

Air Quality

  Air Quality AQ Index Pollutant
Not available.

Snow Depth

Station Depth Elevation

Earthquake Activity

City Distance Mag. Time & Date
Minimum magnitude displayed is 2.5.

Coastal Water Temperatures

Place Temperature

Stations

Nearby Weather Stations

Station Location Temp. Windchill Dew Point Humidity Wind Precip. Elev Updated Type
                   

Watches & Warnings

Winter Storm Warning
Issued: 9:39 PM PST Dec. 8, 2016 – National Weather Service

... Winter Storm Warning remains in effect until 4 PM PST Friday
for the South Washington Cascades... central Columbia River gorge
and Upper Hood River Valley...

A Winter Storm Warning for snow remains in effect until 4 PM PST
Friday.




* Timing... through Friday afternoon.

* Snow accumulations... storm totals of 8 to 16 inches.

* Impacts... snow will make travel extremely difficult along
Interstate 84 and Highway 14 as well as in the South Washington
Cascades.



Precautionary/preparedness actions...

A Winter Storm Warning means significant amounts of snow...
sleet... and ice are expected or occurring. Strong winds are also
possible. This will make travel very hazardous or impossible.